首页
METAR-TAF:

METAR-TAF

机场 :

Wunstorf, 德国

纬度: 52-27N, 经度: 009-26E, 海拔: 57米

当前天气观测

该预报发布于49分钟前的12:20 UTC
风速6节,风向
温度 14°C
湿度 72%
气压 1010 hPa
能见度10公里或以上
散云层高于1900英尺
多云层高于7000英尺

METAR: ETNW 281220Z 19006KT 9999 SCT019 BKN070 14/09 Q1010 BLU BLU

时间: 15:09 (13:09 UTC)

预报

该预报发布于3小时和4分钟前的10:05 UTC
预报有效从28日的 11点(UTC)到 29日的 11点(UTC)
风速5节,风向
能见度10公里或以上
多云层高于8000英尺
几率 30%
从 29日的 00点(UTC)到 29日的 05点(UTC)
风速3节,风向多变
能見度: 4000
散云层高于5000英尺
轻雾

TAF: ETNW 281005Z 2811/2911 18005KT 9999 NSW BKN080 PROB30 2900/2905 VRB03KT 4000 BR SCT050 BY ETGL

超过4000个机场的气象观测和天气预报(METAR&TAF报告)。

可查询的气象台以黄色和红色小点在地图上表示。

将鼠标移到小点上方,可查看气象台名称。

然后点击查看天气观测和预报。

如需切换地图:点击带黑十字的绿色按钮放大地图;点击带横线的绿色按钮缩小地图;或者点击绿色箭头查看邻近地区的地图。


METAR-TAF: